sensor_id;sensor_type;location;lat;lon;timestamp;pressure;altitude;pressure_sealevel;temperature;humidity
61205;BME280;47068;55.780;37.520;2023-10-19T00:01:53;98905.72;;;7.83;73.24
61205;BME280;47068;55.780;37.520;2023-10-19T00:04:19;98856.72;;;7.55;73.43
61205;BME280;47068;55.780;37.520;2023-10-19T00:06:47;98927.06;;;7.98;73.27
61205;BME280;47068;55.780;37.520;2023-10-19T00:09:14;98896.44;;;7.79;72.81
61205;BME280;47068;55.780;37.520;2023-10-19T00:11:40;98924.72;;;8.03;73.03
61205;BME280;47068;55.780;37.520;2023-10-19T00:14:06;98926.75;;;8.01;73.57
61205;BME280;47068;55.780;37.520;2023-10-19T00:16:45;98924.25;;;8.00;73.11
61205;BME280;47068;55.780;37.520;2023-10-19T00:19:18;98918.44;;;7.96;73.05
61205;BME280;47068;55.780;37.520;2023-10-19T00:21:46;98928.38;;;8.02;73.17
61205;BME280;47068;55.780;37.520;2023-10-19T00:24:17;98926.38;;;8.04;72.55
61205;BME280;47068;55.780;37.520;2023-10-19T00:26:43;98924.72;;;8.03;73.01
61205;BME280;47068;55.780;37.520;2023-10-19T00:29:09;98920.63;;;8.01;72.65
61205;BME280;47068;55.780;37.520;2023-10-19T00:31:53;98924.09;;;8.01;72.46
61205;BME280;47068;55.780;37.520;2023-10-19T00:34:21;98916.47;;;7.98;72.63
61205;BME280;47068;55.780;37.520;2023-10-19T00:36:47;98916.63;;;7.97;73.17
61205;BME280;47068;55.780;37.520;2023-10-19T00:39:13;98920.09;;;7.97;73.01
61205;BME280;47068;55.780;37.520;2023-10-19T00:41:42;98922.13;;;7.95;72.52
61205;BME280;47068;55.780;37.520;2023-10-19T00:44:08;98901.91;;;7.86;72.56
61205;BME280;47068;55.780;37.520;2023-10-19T00:46:38;98918.47;;;7.88;72.55
61205;BME280;47068;55.780;37.520;2023-10-19T00:49:05;98847.47;;;7.43;72.37
61205;BME280;47068;55.780;37.520;2023-10-19T00:51:55;98914.31;;;7.85;72.64
61205;BME280;47068;55.780;37.520;2023-10-19T00:54:32;98930.06;;;7.95;72.40
61205;BME280;47068;55.780;37.520;2023-10-19T00:57:02;98931.03;;;7.94;72.02
61205;BME280;47068;55.780;37.520;2023-10-19T00:59:37;98923.75;;;7.96;72.35
61205;BME280;47068;55.780;37.520;2023-10-19T01:02:15;98928.38;;;8.02;72.13
61205;BME280;47068;55.780;37.520;2023-10-19T01:04:52;98913.97;;;7.88;72.69
61205;BME280;47068;55.780;37.520;2023-10-19T01:07:22;98917.13;;;7.92;72.28
61205;BME280;47068;55.780;37.520;2023-10-19T01:10:02;98926.38;;;7.96;72.92
61205;BME280;47068;55.780;37.520;2023-10-19T01:12:37;98923.59;;;7.98;72.38
61205;BME280;47068;55.780;37.520;2023-10-19T01:17:41;98914.31;;;7.85;71.80
61205;BME280;47068;55.780;37.520;2023-10-19T01:20:13;98925.91;;;7.93;71.78
61205;BME280;47068;55.780;37.520;2023-10-19T01:23:05;98922.75;;;7.89;72.33
61205;BME280;47068;55.780;37.520;2023-10-19T01:25:48;98912.81;;;7.91;71.77
61205;BME280;47068;55.780;37.520;2023-10-19T01:28:20;98916.97;;;7.94;71.64
61205;BME280;47068;55.780;37.520;2023-10-19T01:30:50;98914.16;;;7.95;72.33
61205;BME280;47068;55.780;37.520;2023-10-19T01:33:19;98912.84;;;7.99;71.49
61205;BME280;47068;55.780;37.520;2023-10-19T01:35:45;98915.78;;;8.04;71.80
61205;BME280;47068;55.780;37.520;2023-10-19T01:38:30;98910.34;;;8.06;71.37
61205;BME280;47068;55.780;37.520;2023-10-19T01:41:03;98912.84;;;8.07;71.78
61205;BME280;47068;55.780;37.520;2023-10-19T01:43:32;98909.66;;;8.04;71.74
61205;BME280;47068;55.780;37.520;2023-10-19T01:45:59;98913.31;;;8.03;72.25
61205;BME280;47068;55.780;37.520;2023-10-19T01:48:30;98911.34;;;8.05;72.34
61205;BME280;47068;55.780;37.520;2023-10-19T01:51:03;98911.50;;;8.11;71.73
61205;BME280;47068;55.780;37.520;2023-10-19T01:53:33;98916.78;;;8.11;71.52
61205;BME280;47068;55.780;37.520;2023-10-19T01:55:59;98916.78;;;8.11;71.78
61205;BME280;47068;55.780;37.520;2023-10-19T01:58:25;98922.91;;;8.12;72.45
61205;BME280;47068;55.780;37.520;2023-10-19T02:00:51;98917.13;;;8.08;72.19
61205;BME280;47068;55.780;37.520;2023-10-19T02:03:21;98909.34;;;8.07;71.94
61205;BME280;47068;55.780;37.520;2023-10-19T02:06:00;98912.16;;;8.05;71.83
61205;BME280;47068;55.780;37.520;2023-10-19T02:08:26;98912.16;;;7.97;71.56
61205;BME280;47068;55.780;37.520;2023-10-19T02:10:53;98911.53;;;7.95;71.67
61205;BME280;47068;55.780;37.520;2023-10-19T02:13:19;98912.31;;;7.96;71.58
61205;BME280;47068;55.780;37.520;2023-10-19T02:15:45;98913.81;;;7.98;71.92
61205;BME280;47068;55.780;37.520;2023-10-19T02:18:10;98894.44;;;7.89;71.38
61205;BME280;47068;55.780;37.520;2023-10-19T02:20:36;98901.41;;;7.99;71.41
61205;BME280;47068;55.780;37.520;2023-10-19T02:23:09;98897.59;;;7.93;71.57
61205;BME280;47068;55.780;37.520;2023-10-19T02:25:35;98880.38;;;7.89;71.77
61205;BME280;47068;55.780;37.520;2023-10-19T02:28:04;98912.47;;;8.02;71.84
61205;BME280;47068;55.780;37.520;2023-10-19T02:30:34;98912.16;;;8.05;71.63
61205;BME280;47068;55.780;37.520;2023-10-19T02:33:03;98907.53;;;7.99;71.82
61205;BME280;47068;55.780;37.520;2023-10-19T02:35:31;98899.44;;;7.93;71.57
61205;BME280;47068;55.780;37.520;2023-10-19T02:37:56;98904.56;;;7.94;71.67
61205;BME280;47068;55.780;37.520;2023-10-19T02:40:23;98899.59;;;7.91;71.47
61205;BME280;47068;55.780;37.520;2023-10-19T02:42:50;98904.06;;;7.90;71.23
61205;BME280;47068;55.780;37.520;2023-10-19T02:45:19;98912.31;;;7.96;71.80
61205;BME280;47068;55.780;37.520;2023-10-19T02:47:45;98918.78;;;7.93;71.39
61205;BME280;47068;55.780;37.520;2023-10-19T02:50:11;98908.88;;;7.95;71.88
61205;BME280;47068;55.780;37.520;2023-10-19T02:52:42;98917.97;;;7.93;71.84
61205;BME280;47068;55.780;37.520;2023-10-19T02:55:09;98902.75;;;7.86;71.74
61205;BME280;47068;55.780;37.520;2023-10-19T02:57:37;98910.84;;;8.01;71.88
61205;BME280;47068;55.780;37.520;2023-10-19T03:00:06;98910.34;;;7.98;71.25
61205;BME280;47068;55.780;37.520;2023-10-19T03:02:39;98899.59;;;7.91;71.78
61205;BME280;47068;55.780;37.520;2023-10-19T03:05:05;98902.22;;;7.99;71.42
61205;BME280;47068;55.780;37.520;2023-10-19T03:07:42;98893.28;;;8.00;71.07
61205;BME280;47068;55.780;37.520;2023-10-19T03:10:11;98905.19;;;8.12;71.44
61205;BME280;47068;55.780;37.520;2023-10-19T03:12:50;98891.28;;;8.02;71.63
61205;BME280;47068;55.780;37.520;2023-10-19T03:15:17;98911.50;;;8.11;71.38
61205;BME280;47068;55.780;37.520;2023-10-19T03:17:46;98907.69;;;8.06;71.16
61205;BME280;47068;55.780;37.520;2023-10-19T03:20:11;98906.38;;;8.02;71.73
61205;BME280;47068;55.780;37.520;2023-10-19T03:22:37;98903.22;;;8.06;72.37
61205;BME280;47068;55.780;37.520;2023-10-19T03:25:05;98901.88;;;8.10;71.38
61205;BME280;47068;55.780;37.520;2023-10-19T03:27:57;98904.72;;;8.09;71.48
61205;BME280;47068;55.780;37.520;2023-10-19T03:30:22;98905.56;;;8.01;71.61
61205;BME280;47068;55.780;37.520;2023-10-19T03:32:51;98914.81;;;8.05;71.35
61205;BME280;47068;55.780;37.520;2023-10-19T03:35:16;98902.72;;;8.03;71.51
61205;BME280;47068;55.780;37.520;2023-10-19T03:37:42;98890.50;;;8.02;71.74
61205;BME280;47068;55.780;37.520;2023-10-19T03:40:08;98913.31;;;8.11;71.64
61205;BME280;47068;55.780;37.520;2023-10-19T03:42:39;98887.66;;;8.03;71.33
61205;BME280;47068;55.780;37.520;2023-10-19T03:45:09;98908.84;;;8.19;71.55
61205;BME280;47068;55.780;37.520;2023-10-19T03:47:39;98913.81;;;8.22;71.07
61205;BME280;47068;55.780;37.520;2023-10-19T03:50:05;98910.50;;;8.20;71.32
61205;BME280;47068;55.780;37.520;2023-10-19T03:52:39;98913.31;;;8.19;71.46
61205;BME280;47068;55.780;37.520;2023-10-19T03:55:05;98916.28;;;8.24;70.90
61205;BME280;47068;55.780;37.520;2023-10-19T03:57:37;98904.88;;;8.15;70.57
61205;BME280;47068;55.780;37.520;2023-10-19T04:00:12;98891.13;;;7.96;71.38
61205;BME280;47068;55.780;37.520;2023-10-19T04:02:41;98918.59;;;8.11;71.63
61205;BME280;47068;55.780;37.520;2023-10-19T04:05:11;98910.66;;;8.03;71.91
61205;BME280;47068;55.780;37.520;2023-10-19T04:07:40;98908.84;;;8.03;71.27
61205;BME280;47068;55.780;37.520;2023-10-19T04:10:07;98914.13;;;8.11;71.62
61205;BME280;47068;55.780;37.520;2023-10-19T04:12:37;98908.00;;;8.11;71.19
61205;BME280;47068;55.780;37.520;2023-10-19T04:15:05;98913.66;;;8.08;71.39
61205;BME280;47068;55.780;37.520;2023-10-19T04:17:47;98914.13;;;8.03;71.26
61205;BME280;47068;55.780;37.520;2023-10-19T04:20:17;98915.31;;;8.01;71.51
61205;BME280;47068;55.780;37.520;2023-10-19T04:25:09;98915.31;;;8.09;71.10
61205;BME280;47068;55.780;37.520;2023-10-19T04:27:44;98901.72;;;8.04;70.89
61205;BME280;47068;55.780;37.520;2023-10-19T04:30:12;98909.34;;;8.15;70.72
61205;BME280;47068;55.780;37.520;2023-10-19T04:32:48;98924.56;;;8.13;71.18
61205;BME280;47068;55.780;37.520;2023-10-19T04:35:17;98913.16;;;8.04;71.00
61205;BME280;47068;55.780;37.520;2023-10-19T04:37:50;98928.88;;;8.06;71.03
61205;BME280;47068;55.780;37.520;2023-10-19T04:40:17;98920.78;;;7.99;71.15
61205;BME280;47068;55.780;37.520;2023-10-19T04:42:43;98921.44;;;8.01;71.23
61205;BME280;47068;55.780;37.520;2023-10-19T04:45:09;98858.06;;;7.59;71.12
61205;BME280;47068;55.780;37.520;2023-10-19T04:47:37;98921.75;;;8.06;71.16
61205;BME280;47068;55.780;37.520;2023-10-19T04:50:03;98852.25;;;7.72;70.47
61205;BME280;47068;55.780;37.520;2023-10-19T04:52:29;98919.44;;;8.19;70.82
61205;BME280;47068;55.780;37.520;2023-10-19T04:54:55;98918.94;;;8.16;71.06
61205;BME280;47068;55.780;37.520;2023-10-19T04:57:21;98916.47;;;8.22;70.65
61205;BME280;47068;55.780;37.520;2023-10-19T04:59:47;98918.59;;;8.19;70.28
61205;BME280;47068;55.780;37.520;2023-10-19T05:02:13;98925.88;;;8.17;69.95
61205;BME280;47068;55.780;37.520;2023-10-19T05:04:38;98927.53;;;8.18;70.77
61205;BME280;47068;55.780;37.520;2023-10-19T05:07:04;98924.41;;;8.22;71.02
61205;BME280;47068;55.780;37.520;2023-10-19T05:09:31;98922.41;;;8.24;70.63
61205;BME280;47068;55.780;37.520;2023-10-19T05:11:56;98924.09;;;8.34;70.54
61205;BME280;47068;55.780;37.520;2023-10-19T05:14:22;98915.31;;;8.33;70.54
61205;BME280;47068;55.780;37.520;2023-10-19T05:16:47;98919.75;;;8.24;70.50
61205;BME280;47068;55.780;37.520;2023-10-19T05:19:14;98912.97;;;8.22;70.59
61205;BME280;47068;55.780;37.520;2023-10-19T05:21:39;98921.91;;;8.21;70.78
61205;BME280;47068;55.780;37.520;2023-10-19T05:24:05;98931.00;;;8.26;71.26
61205;BME280;47068;55.780;37.520;2023-10-19T05:26:33;98930.03;;;8.19;71.24
61205;BME280;47068;55.780;37.520;2023-10-19T05:28:58;98928.53;;;8.17;71.16
61205;BME280;47068;55.780;37.520;2023-10-19T05:31:24;98934.66;;;8.17;71.33
61205;BME280;47068;55.780;37.520;2023-10-19T05:33:50;98929.88;;;8.13;70.66
61205;BME280;47068;55.780;37.520;2023-10-19T05:36:15;98910.50;;;8.04;70.39
61205;BME280;47068;55.780;37.520;2023-10-19T05:38:43;98934.34;;;8.20;70.48
61205;BME280;47068;55.780;37.520;2023-10-19T05:41:08;98939.47;;;8.22;70.64
61205;BME280;47068;55.780;37.520;2023-10-19T05:43:36;98917.47;;;8.05;69.90
61205;BME280;47068;55.780;37.520;2023-10-19T05:46:02;98942.81;;;8.16;69.66
61205;BME280;47068;55.780;37.520;2023-10-19T05:48:27;98940.47;;;8.21;70.06
61205;BME280;47068;55.780;37.520;2023-10-19T05:50:53;98923.59;;;8.14;70.09
61205;BME280;47068;55.780;37.520;2023-10-19T05:53:19;98938.28;;;8.24;70.25
61205;BME280;47068;55.780;37.520;2023-10-19T05:55:49;98944.78;;;8.22;70.06
61205;BME280;47068;55.780;37.520;2023-10-19T05:58:15;98941.28;;;8.21;70.36
61205;BME280;47068;55.780;37.520;2023-10-19T06:00:41;98939.78;;;8.27;69.63
61205;BME280;47068;55.780;37.520;2023-10-19T06:03:07;98946.09;;;8.26;70.12
61205;BME280;47068;55.780;37.520;2023-10-19T06:05:33;98946.09;;;8.26;69.55
61205;BME280;47068;55.780;37.520;2023-10-19T06:07:59;98949.88;;;8.23;69.46
61205;BME280;47068;55.780;37.520;2023-10-19T06:10:26;98942.59;;;8.17;69.37
61205;BME280;47068;55.780;37.520;2023-10-19T06:12:52;98946.09;;;8.26;70.07
61205;BME280;47068;55.780;37.520;2023-10-19T06:15:19;98942.09;;;8.30;69.52
61205;BME280;47068;55.780;37.520;2023-10-19T06:17:51;98955.56;;;8.37;69.85
61205;BME280;47068;55.780;37.520;2023-10-19T06:20:17;98955.88;;;8.42;69.19
61205;BME280;47068;55.780;37.520;2023-10-19T06:22:53;98948.91;;;8.41;68.92
61205;BME280;47068;55.780;37.520;2023-10-19T06:25:22;98944.97;;;8.37;68.89
61205;BME280;47068;55.780;37.520;2023-10-19T06:27:49;98939.31;;;8.32;69.39
61205;BME280;47068;55.780;37.520;2023-10-19T06:30:15;98944.28;;;8.35;69.63
61205;BME280;47068;55.780;37.520;2023-10-19T06:32:51;98947.63;;;8.37;69.71
61205;BME280;47068;55.780;37.520;2023-10-19T06:35:18;98947.94;;;8.42;68.99
61205;BME280;47068;55.780;37.520;2023-10-19T06:37:44;98952.38;;;8.49;69.29
61205;BME280;47068;55.780;37.520;2023-10-19T06:40:10;98956.19;;;8.55;68.95
61205;BME280;47068;55.780;37.520;2023-10-19T06:42:37;98950.88;;;8.63;68.68
61205;BME280;47068;55.780;37.520;2023-10-19T06:45:04;98943.88;;;8.70;68.75
61205;BME280;47068;55.780;37.520;2023-10-19T06:47:29;98943.53;;;8.73;68.10
61205;BME280;47068;55.780;37.520;2023-10-19T06:49:56;98936.41;;;8.74;68.40
61205;BME280;47068;55.780;37.520;2023-10-19T06:52:22;98939.38;;;8.79;68.05
61205;BME280;47068;55.780;37.520;2023-10-19T06:54:47;98949.25;;;8.93;68.18
61205;BME280;47068;55.780;37.520;2023-10-19T06:57:13;98920.44;;;8.90;67.73
61205;BME280;47068;55.780;37.520;2023-10-19T06:59:38;98943.63;;;9.27;67.22
61205;BME280;47068;55.780;37.520;2023-10-19T07:02:04;98932.34;;;9.33;66.51
61205;BME280;47068;55.780;37.520;2023-10-19T07:04:33;98943.34;;;9.53;66.24
61205;BME280;47068;55.780;37.520;2023-10-19T07:06:58;98958.16;;;9.47;65.50
61205;BME280;47068;55.780;37.520;2023-10-19T07:09:26;98947.22;;;9.42;66.14
61205;BME280;47068;55.780;37.520;2023-10-19T07:11:51;98936.63;;;9.34;65.58
61205;BME280;47068;55.780;37.520;2023-10-19T07:14:20;98938.16;;;9.28;66.13
61205;BME280;47068;55.780;37.520;2023-10-19T07:16:48;98954.72;;;9.38;66.11
61205;BME280;47068;55.780;37.520;2023-10-19T07:19:14;98947.94;;;9.28;66.71
61205;BME280;47068;55.780;37.520;2023-10-19T07:21:39;98960.88;;;9.31;66.32
61205;BME280;47068;55.780;37.520;2023-10-19T07:24:08;98935.78;;;9.11;65.93
61205;BME280;47068;55.780;37.520;2023-10-19T07:26:36;98901.88;;;8.90;66.15
61205;BME280;47068;55.780;37.520;2023-10-19T07:29:09;98960.91;;;9.23;66.11
61205;BME280;47068;55.780;37.520;2023-10-19T07:31:35;98966.56;;;9.20;65.39
61205;BME280;47068;55.780;37.520;2023-10-19T07:34:01;98966.94;;;9.17;65.14
61205;BME280;47068;55.780;37.520;2023-10-19T07:36:28;98972.75;;;9.12;65.45
61205;BME280;47068;55.780;37.520;2023-10-19T07:38:54;98978.41;;;9.09;66.32
61205;BME280;47068;55.780;37.520;2023-10-19T07:41:20;98946.59;;;9.01;65.87
61205;BME280;47068;55.780;37.520;2023-10-19T07:43:46;98973.22;;;9.16;66.08
61205;BME280;47068;55.780;37.520;2023-10-19T07:46:12;98955.69;;;9.06;65.83
61205;BME280;47068;55.780;37.520;2023-10-19T07:48:37;98966.28;;;9.06;66.29
61205;BME280;47068;55.780;37.520;2023-10-19T07:51:04;98979.53;;;9.15;66.55
61205;BME280;47068;55.780;37.520;2023-10-19T07:53:29;98966.94;;;9.17;66.63
61205;BME280;47068;55.780;37.520;2023-10-19T07:55:55;98977.88;;;9.14;66.65
61205;BME280;47068;55.780;37.520;2023-10-19T07:58:22;98960.66;;;9.09;66.50
61205;BME280;47068;55.780;37.520;2023-10-19T08:00:48;98970.56;;;9.16;66.54
61205;BME280;47068;55.780;37.520;2023-10-19T08:03:13;98959.69;;;9.02;66.74
61205;BME280;47068;55.780;37.520;2023-10-19T08:05:41;98971.25;;;9.09;66.88
61205;BME280;47068;55.780;37.520;2023-10-19T08:08:08;98969.59;;;9.08;67.18
61205;BME280;47068;55.780;37.520;2023-10-19T08:10:34;98964.59;;;9.14;66.86
61205;BME280;47068;55.780;37.520;2023-10-19T08:13:00;98983.50;;;9.19;66.78
61205;BME280;47068;55.780;37.520;2023-10-19T08:15:26;98970.25;;;9.19;67.09
61205;BME280;47068;55.780;37.520;2023-10-19T08:17:54;98986.34;;;9.17;68.02
61205;BME280;47068;55.780;37.520;2023-10-19T08:20:20;98983.19;;;9.14;68.54
61205;BME280;47068;55.780;37.520;2023-10-19T08:22:56;98980.34;;;9.15;68.13
61205;BME280;47068;55.780;37.520;2023-10-19T08:25:25;98985.19;;;9.12;68.05
61205;BME280;47068;55.780;37.520;2023-10-19T08:27:52;98985.19;;;9.12;67.92
61205;BME280;47068;55.780;37.520;2023-10-19T08:30:22;98978.56;;;9.07;67.84
61205;BME280;47068;55.780;37.520;2023-10-19T08:32:49;98989.16;;;9.16;67.38
61205;BME280;47068;55.780;37.520;2023-10-19T08:35:17;98895.88;;;8.57;67.29
61205;BME280;47068;55.780;37.520;2023-10-19T08:37:46;98988.84;;;9.11;66.74
61205;BME280;47068;55.780;37.520;2023-10-19T08:40:12;98978.91;;;9.04;67.42
61205;BME280;47068;55.780;37.520;2023-10-19T08:42:45;98987.31;;;9.16;67.20
61205;BME280;47068;55.780;37.520;2023-10-19T08:45:12;98993.44;;;9.25;66.69
61205;BME280;47068;55.780;37.520;2023-10-19T08:50:14;98990.69;;;9.41;67.17
61205;BME280;47068;55.780;37.520;2023-10-19T08:52:43;98997.78;;;9.48;66.31
61205;BME280;47068;55.780;37.520;2023-10-19T08:55:09;98977.03;;;9.52;66.71
61205;BME280;47068;55.780;37.520;2023-10-19T08:57:39;98979.56;;;9.68;66.46
61205;BME280;47068;55.780;37.520;2023-10-19T09:00:05;98985.19;;;9.96;65.70
61205;BME280;47068;55.780;37.520;2023-10-19T09:02:32;98974.47;;;9.89;65.60
61205;BME280;47068;55.780;37.520;2023-10-19T09:04:58;98991.22;;;9.90;65.61
61205;BME280;47068;55.780;37.520;2023-10-19T09:07:25;98985.47;;;9.86;65.63
61205;BME280;47068;55.780;37.520;2023-10-19T09:09:56;98989.31;;;9.76;66.20
61205;BME280;47068;55.780;37.520;2023-10-19T09:12:22;98990.47;;;9.81;66.13
61205;BME280;47068;55.780;37.520;2023-10-19T09:14:48;99002.81;;;9.74;65.81
61205;BME280;47068;55.780;37.520;2023-10-19T09:17:15;99002.09;;;9.80;65.12
61205;BME280;47068;55.780;37.520;2023-10-19T09:19:44;99007.75;;;9.77;64.61
61205;BME280;47068;55.780;37.520;2023-10-19T09:22:13;98978.34;;;9.56;64.96
61205;BME280;47068;55.780;37.520;2023-10-19T09:24:47;98997.59;;;9.58;65.46
61205;BME280;47068;55.780;37.520;2023-10-19T09:27:16;99003.84;;;9.65;65.95
61205;BME280;47068;55.780;37.520;2023-10-19T09:29:43;99005.19;;;9.61;66.63
61205;BME280;47068;55.780;37.520;2023-10-19T09:32:09;98980.03;;;9.49;66.07
61205;BME280;47068;55.780;37.520;2023-10-19T09:34:35;99007.50;;;9.64;65.88
61205;BME280;47068;55.780;37.520;2023-10-19T09:37:03;99005.50;;;9.66;66.00
61205;BME280;47068;55.780;37.520;2023-10-19T09:39:30;99001.84;;;9.67;65.18
61205;BME280;47068;55.780;37.520;2023-10-19T09:42:08;98999.41;;;9.58;64.47
61205;BME280;47068;55.780;37.520;2023-10-19T09:44:44;98995.53;;;9.37;65.09
61205;BME280;47068;55.780;37.520;2023-10-19T09:47:34;99014.94;;;9.38;65.91
61205;BME280;47068;55.780;37.520;2023-10-19T09:50:01;99004.16;;;9.39;65.25
61205;BME280;47068;55.780;37.520;2023-10-19T09:52:28;99015.59;;;9.40;65.17
61205;BME280;47068;55.780;37.520;2023-10-19T09:55:25;99013.44;;;9.35;65.31
61205;BME280;47068;55.780;37.520;2023-10-19T09:58:15;99011.50;;;9.29;65.64
61205;BME280;47068;55.780;37.520;2023-10-19T10:00:45;99005.88;;;9.24;65.78
61205;BME280;47068;55.780;37.520;2023-10-19T10:06:12;99019.75;;;9.34;66.16
61205;BME280;47068;55.780;37.520;2023-10-19T10:08:40;99022.59;;;9.33;66.12
61205;BME280;47068;55.780;37.520;2023-10-19T10:11:18;99013.59;;;9.42;66.12
61205;BME280;47068;55.780;37.520;2023-10-19T10:13:45;99012.59;;;9.43;66.39
61205;BME280;47068;55.780;37.520;2023-10-19T10:16:14;99002.97;;;9.42;66.54
61205;BME280;47068;55.780;37.520;2023-10-19T10:18:41;99010.56;;;9.53;66.47
61205;BME280;47068;55.780;37.520;2023-10-19T10:21:14;99007.09;;;9.44;66.43
61205;BME280;47068;55.780;37.520;2023-10-19T10:26:22;99006.59;;;9.49;64.86
61205;BME280;47068;55.780;37.520;2023-10-19T10:29:11;99009.56;;;9.54;64.33
61205;BME280;47068;55.780;37.520;2023-10-19T10:31:47;99012.25;;;9.46;64.22
61205;BME280;47068;55.780;37.520;2023-10-19T10:37:10;99008.63;;;9.39;63.56
61205;BME280;47068;55.780;37.520;2023-10-19T10:39:37;99020.53;;;9.51;64.19
61205;BME280;47068;55.780;37.520;2023-10-19T10:42:05;99007.16;;;9.67;64.80
61205;BME280;47068;55.780;37.520;2023-10-19T10:44:48;99009.06;;;9.81;64.73
61205;BME280;47068;55.780;37.520;2023-10-19T10:47:22;98996.78;;;9.80;63.96
61205;BME280;47068;55.780;37.520;2023-10-19T10:49:56;99004.56;;;9.82;62.75
61205;BME280;47068;55.780;37.520;2023-10-19T10:55:10;99006.75;;;9.78;63.10
61205;BME280;47068;55.780;37.520;2023-10-19T10:57:39;99007.09;;;9.75;63.07
61205;BME280;47068;55.780;37.520;2023-10-19T11:02:59;99008.78;;;9.68;63.78
61205;BME280;47068;55.780;37.520;2023-10-19T11:05:25;99007.53;;;9.56;64.36
61205;BME280;47068;55.780;37.520;2023-10-19T11:08:10;99019.78;;;9.65;65.71
61205;BME280;47068;55.780;37.520;2023-10-19T11:10:40;99014.63;;;9.64;66.08
61205;BME280;47068;55.780;37.520;2023-10-19T11:13:12;99009.81;;;9.67;66.68
61205;BME280;47068;55.780;37.520;2023-10-19T11:15:39;99013.06;;;9.77;66.66
61205;BME280;47068;55.780;37.520;2023-10-19T11:18:37;99016.38;;;9.79;66.06
61205;BME280;47068;55.780;37.520;2023-10-19T11:21:09;99017.22;;;9.80;66.10
61205;BME280;47068;55.780;37.520;2023-10-19T11:26:05;99015.63;;;9.63;66.98
61205;BME280;47068;55.780;37.520;2023-10-19T11:28:31;99000.53;;;9.63;66.88
61205;BME280;47068;55.780;37.520;2023-10-19T11:31:20;98998.53;;;9.65;66.25
61205;BME280;47068;55.780;37.520;2023-10-19T11:33:54;99012.47;;;9.67;65.92
61205;BME280;47068;55.780;37.520;2023-10-19T11:36:24;99022.91;;;9.69;66.14
61205;BME280;47068;55.780;37.520;2023-10-19T11:38:52;99021.13;;;9.61;66.68
61205;BME280;47068;55.780;37.520;2023-10-19T11:41:18;99017.88;;;9.51;65.85
61205;BME280;47068;55.780;37.520;2023-10-19T11:43:46;99011.88;;;9.49;65.74
61205;BME280;47068;55.780;37.520;2023-10-19T11:46:13;99011.59;;;9.44;65.78
61205;BME280;47068;55.780;37.520;2023-10-19T11:48:40;99010.94;;;9.42;65.78
61205;BME280;47068;55.780;37.520;2023-10-19T11:51:07;99014.25;;;9.44;66.13
61205;BME280;47068;55.780;37.520;2023-10-19T11:53:37;99016.91;;;9.44;66.39
61205;BME280;47068;55.780;37.520;2023-10-19T11:56:05;99019.06;;;9.40;67.18
61205;BME280;47068;55.780;37.520;2023-10-19T11:58:34;99020.25;;;9.38;67.72
61205;BME280;47068;55.780;37.520;2023-10-19T12:01:04;99020.09;;;9.39;68.04
61205;BME280;47068;55.780;37.520;2023-10-19T12:03:39;99023.91;;;9.37;68.21
61205;BME280;47068;55.780;37.520;2023-10-19T12:06:11;99022.28;;;9.28;67.92
61205;BME280;47068;55.780;37.520;2023-10-19T12:08:38;99023.94;;;9.21;68.35
61205;BME280;47068;55.780;37.520;2023-10-19T12:11:05;99020.84;;;9.09;68.72
61205;BME280;47068;55.780;37.520;2023-10-19T12:13:41;99025.03;;;9.03;69.67
61205;BME280;47068;55.780;37.520;2023-10-19T12:16:11;99019.22;;;9.00;70.26
61205;BME280;47068;55.780;37.520;2023-10-19T12:18:45;99024.72;;;8.90;70.75
61205;BME280;47068;55.780;37.520;2023-10-19T12:21:11;99017.44;;;8.84;70.56
61205;BME280;47068;55.780;37.520;2023-10-19T12:23:41;99023.38;;;8.86;71.10
61205;BME280;47068;55.780;37.520;2023-10-19T12:26:07;99016.44;;;8.85;70.87
61205;BME280;47068;55.780;37.520;2023-10-19T12:28:40;99007.50;;;8.78;71.15
61205;BME280;47068;55.780;37.520;2023-10-19T12:31:07;99027.88;;;8.86;71.49
61205;BME280;47068;55.780;37.520;2023-10-19T12:33:36;99033.69;;;8.81;70.87
61205;BME280;47068;55.780;37.520;2023-10-19T12:36:04;99020.78;;;8.70;71.41
61205;BME280;47068;55.780;37.520;2023-10-19T12:38:49;99033.69;;;8.73;71.90
61205;BME280;47068;55.780;37.520;2023-10-19T12:41:19;99022.78;;;8.60;72.06
61205;BME280;47068;55.780;37.520;2023-10-19T12:43:44;99030.06;;;8.66;73.00
61205;BME280;47068;55.780;37.520;2023-10-19T12:46:11;99036.50;;;8.72;72.79
61205;BME280;47068;55.780;37.520;2023-10-19T12:48:39;99029.22;;;8.74;73.08
61205;BME280;47068;55.780;37.520;2023-10-19T12:51:05;99032.38;;;8.77;73.55
61205;BME280;47068;55.780;37.520;2023-10-19T12:53:34;99027.09;;;8.69;73.59
61205;BME280;47068;55.780;37.520;2023-10-19T12:56:00;99035.38;;;8.66;74.60
61205;BME280;47068;55.780;37.520;2023-10-19T12:58:25;99043.66;;;8.63;75.00
61205;BME280;47068;55.780;37.520;2023-10-19T13:00:53;99041.50;;;8.58;75.11
61205;BME280;47068;55.780;37.520;2023-10-19T13:03:20;99035.22;;;8.59;75.59
61205;BME280;47068;55.780;37.520;2023-10-19T13:05:47;99037.53;;;8.62;75.47
61205;BME280;47068;55.780;37.520;2023-10-19T13:08:15;99038.84;;;8.66;75.60
61205;BME280;47068;55.780;37.520;2023-10-19T13:10:42;99035.88;;;8.61;75.15
61205;BME280;47068;55.780;37.520;2023-10-19T13:13:10;99033.38;;;8.60;74.39
61205;BME280;47068;55.780;37.520;2023-10-19T13:15:40;99029.75;;;8.61;74.55
61205;BME280;47068;55.780;37.520;2023-10-19T13:18:07;99023.44;;;8.54;74.78
61205;BME280;47068;55.780;37.520;2023-10-19T13:20:35;99038.38;;;8.63;74.79
61205;BME280;47068;55.780;37.520;2023-10-19T13:23:06;99035.88;;;8.61;75.20
61205;BME280;47068;55.780;37.520;2023-10-19T13:25:41;99012.53;;;8.41;74.83
61205;BME280;47068;55.780;37.520;2023-10-19T13:28:30;99042.31;;;8.59;75.32
61205;BME280;47068;55.780;37.520;2023-10-19T13:30:55;99043.47;;;8.64;75.09
61205;BME280;47068;55.780;37.520;2023-10-19T13:33:21;99044.97;;;8.59;74.73
61205;BME280;47068;55.780;37.520;2023-10-19T13:35:47;99041.03;;;8.55;74.50